Time;durP1;ratioP1;P1;durP2;ratioP2;P2;SDS_P1;SDS_P2;PMS_P1;PMS_P2;Temp;Humidity;BMP_temperature;BMP_pressure;BME280_temperature;BME280_humidity;BME280_pressure;Samples;Min_cycle;Max_cycle;Signal;HPM_P1;HPM_P2
2022/04/20 00:01:13;;;;;;;5.88;2.17;;;6.10;85.90;;;;;;4952720;28;20038;-69
2022/04/20 00:03:39;;;;;;;5.03;2.20;;;6.00;86.10;;;;;;4954791;28;20031;-69
2022/04/20 00:06:06;;;;;;;5.88;1.98;;;6.00;86.10;;;;;;4951748;28;20022;-69
2022/04/20 00:08:32;;;;;;;6.30;2.10;;;6.00;86.20;;;;;;4956914;28;20115;-69
2022/04/20 00:10:59;;;;;;;3.10;1.77;;;6.00;86.00;;;;;;4953071;28;20451;-69
2022/04/20 00:13:25;;;;;;;3.80;2.30;;;6.00;86.30;;;;;;4953523;28;20089;-69
2022/04/20 00:15:50;;;;;;;4.40;2.08;;;6.00;86.40;;;;;;4950662;28;20118;-69
2022/04/20 00:18:16;;;;;;;2.92;1.75;;;6.00;86.60;;;;;;4954723;28;20654;-69
2022/04/20 00:20:42;;;;;;;3.10;1.95;;;6.00;86.60;;;;;;4956348;28;20475;-69
2022/04/20 00:23:08;;;;;;;3.42;1.80;;;6.00;86.70;;;;;;4952332;28;20135;-69
2022/04/20 00:25:34;;;;;;;3.75;2.20;;;6.10;86.50;;;;;;4955142;28;20037;-68
2022/04/20 00:28:00;;;;;;;4.32;2.28;;;6.10;86.40;;;;;;4953581;28;20027;-68
2022/04/20 00:30:26;;;;;;;8.68;2.10;;;6.20;86.20;;;;;;4943314;28;20409;-68
2022/04/20 00:32:51;;;;;;;3.33;1.52;;;6.20;86.00;;;;;;4943368;28;20752;-69
2022/04/20 00:35:17;;;;;;;6.05;2.10;;;6.30;85.90;;;;;;4937223;28;20039;-68
2022/04/20 00:37:43;;;;;;;4.88;2.30;;;6.30;85.70;;;;;;4956125;28;20026;-68
2022/04/20 00:40:10;;;;;;;6.78;2.28;;;6.40;85.80;;;;;;4935906;28;20030;-68
2022/04/20 00:42:40;;;;;;;3.53;2.05;;;6.40;85.60;;;;;;4936713;28;20595;-68
2022/04/20 00:45:10;;;;;;;4.50;1.75;;;6.50;85.50;;;;;;4937995;28;20077;-68
2022/04/20 00:47:37;;;;;;;2.75;1.73;;;6.50;85.20;;;;;;4953735;28;20073;-68
2022/04/20 00:50:05;;;;;;;3.58;1.70;;;6.60;85.20;;;;;;4943488;28;20442;-69
2022/04/20 00:52:31;;;;;;;4.93;2.38;;;6.60;85.20;;;;;;4944400;28;20086;-68
2022/04/20 00:54:57;;;;;;;4.53;2.03;;;6.60;85.10;;;;;;4941416;28;20146;-68
2022/04/20 00:57:22;;;;;;;4.78;1.95;;;6.60;85.00;;;;;;4938813;28;20031;-68
2022/04/20 00:59:49;;;;;;;2.42;1.67;;;6.60;84.90;;;;;;4941460;28;20042;-68
2022/04/20 01:02:15;;;;;;;2.88;2.05;;;6.60;84.80;;;;;;4953590;28;20178;-68
2022/04/20 01:04:41;;;;;;;3.40;1.83;;;6.60;84.60;;;;;;4943835;28;20030;-68
2022/04/20 01:07:37;;;;;;;2.75;1.88;;;6.60;84.80;;;;;;4953988;28;20553;-68
2022/04/20 01:10:32;;;;;;;4.38;2.08;;;6.50;84.70;;;;;;4939169;28;20081;-68
2022/04/20 01:13:20;;;;;;;2.55;1.75;;;6.60;84.80;;;;;;4949935;28;20513;-69
2022/04/20 01:16:01;;;;;;;2.75;1.83;;;6.60;84.80;;;;;;4939393;28;20090;-68
2022/04/20 01:18:45;;;;;;;3.13;1.80;;;6.60;84.60;;;;;;4932085;28;20117;-69
2022/04/20 01:21:43;;;;;;;4.50;1.80;;;6.70;84.50;;;;;;4945161;28;20786;-69
2022/04/20 01:24:28;;;;;;;3.28;1.75;;;6.70;84.50;;;;;;4954522;28;20050;-68
2022/04/20 01:27:12;;;;;;;2.45;1.65;;;6.70;84.60;;;;;;4939928;28;20450;-68
2022/04/20 01:29:56;;;;;;;2.40;1.48;;;6.80;84.80;;;;;;4954253;28;20034;-69
2022/04/20 01:32:33;;;;;;;4.03;1.80;;;6.70;85.00;;;;;;4938470;28;20114;-68
2022/04/20 01:35:18;;;;;;;6.30;2.22;;;6.70;85.00;;;;;;4942259;28;20117;-68
2022/04/20 01:37:44;;;;;;;4.63;1.95;;;6.70;85.00;;;;;;4933511;28;20938;-69
2022/04/20 01:40:11;;;;;;;3.75;1.98;;;6.70;85.20;;;;;;4931876;28;21014;-68
2022/04/20 01:42:36;;;;;;;3.40;2.22;;;6.60;85.20;;;;;;4954654;28;20034;-68
2022/04/20 01:45:05;;;;;;;4.25;1.90;;;6.60;85.00;;;;;;4939997;28;20077;-69
2022/04/20 01:47:51;;;;;;;2.47;1.50;;;6.60;84.80;;;;;;4950617;28;20589;-68
2022/04/20 01:50:26;;;;;;;2.00;1.58;;;6.60;84.90;;;;;;4935671;28;20062;-69
2022/04/20 01:53:04;;;;;;;3.65;1.83;;;6.70;85.10;;;;;;4936783;28;20585;-69
2022/04/20 01:55:49;;;;;;;2.33;1.60;;;6.60;85.30;;;;;;4952325;28;20608;-69
2022/04/20 01:58:43;;;;;;;3.28;1.92;;;6.70;85.40;;;;;;4942686;28;20038;-68
2022/04/20 02:04:10;;;;;;;4.82;1.92;;;6.60;85.20;;;;;;4941890;28;20134;-68
2022/04/20 02:06:38;;;;;;;4.25;2.20;;;6.60;85.20;;;;;;4936620;28;20130;-68
2022/04/20 02:09:10;;;;;;;4.70;1.80;;;6.60;85.40;;;;;;4940573;28;20042;-68
2022/04/20 02:11:46;;;;;;;4.05;1.90;;;6.60;85.50;;;;;;4935250;28;20023;-69
2022/04/20 02:14:20;;;;;;;3.55;1.83;;;6.60;85.90;;;;;;4935273;28;20024;-69
2022/04/20 02:16:53;;;;;;;4.47;2.40;;;6.60;85.80;;;;;;4938293;28;20122;-68
2022/04/20 02:19:42;;;;;;;5.60;1.83;;;6.70;86.00;;;;;;4934798;28;20038;-69
2022/04/20 02:22:20;;;;;;;3.78;1.88;;;6.70;86.20;;;;;;4934665;28;20042;-69
2022/04/20 02:24:46;;;;;;;3.47;1.95;;;6.70;86.20;;;;;;4933035;28;20094;-69
2022/04/20 02:27:13;;;;;;;5.55;2.00;;;6.80;86.20;;;;;;4941004;28;20125;-69
2022/04/20 02:29:39;;;;;;;2.88;1.73;;;6.80;86.30;;;;;;4955436;28;20029;-68
2022/04/20 02:32:07;;;;;;;5.68;2.15;;;6.80;86.20;;;;;;4955346;28;20820;-68
2022/04/20 02:34:33;;;;;;;5.53;2.00;;;6.80;85.90;;;;;;4944926;28;20037;-68
2022/04/20 02:36:59;;;;;;;4.80;2.13;;;6.80;85.60;;;;;;4953207;28;20309;-69
2022/04/20 02:39:25;;;;;;;3.28;2.40;;;6.80;85.30;;;;;;4961391;28;20035;-68
2022/04/20 02:41:51;;;;;;;2.70;1.95;;;6.80;85.70;;;;;;4941026;28;20105;-68
2022/04/20 02:44:17;;;;;;;3.53;2.10;;;6.80;85.80;;;;;;4941942;28;20041;-69
2022/04/20 02:46:43;;;;;;;3.85;2.08;;;6.80;85.90;;;;;;4956819;28;20037;-68
2022/04/20 02:49:09;;;;;;;3.58;1.95;;;6.90;86.20;;;;;;4944430;28;20062;-69
2022/04/20 02:51:35;;;;;;;2.88;2.13;;;7.00;86.20;;;;;;4955384;28;20106;-68
2022/04/20 02:54:02;;;;;;;3.78;2.13;;;7.00;85.90;;;;;;4934937;28;20027;-69
2022/04/20 02:56:31;;;;;;;3.88;2.30;;;7.00;85.90;;;;;;4939460;28;20118;-68
2022/04/20 02:58:56;;;;;;;4.20;2.33;;;7.00;85.90;;;;;;4943613;28;20064;-68
2022/04/20 03:01:22;;;;;;;2.72;1.90;;;7.00;85.90;;;;;;4941628;28;20023;-68
2022/04/20 03:03:50;;;;;;;2.67;1.92;;;7.00;86.00;;;;;;4943695;28;20114;-68
2022/04/20 03:06:36;;;;;;;3.08;2.05;;;7.00;86.00;;;;;;4956015;28;20031;-69
2022/04/20 03:09:08;;;;;;;5.60;2.05;;;7.00;86.00;;;;;;4943455;28;20035;-69
2022/04/20 03:11:37;;;;;;;2.88;1.80;;;7.00;86.00;;;;;;4954991;28;20046;-68
2022/04/20 03:14:03;;;;;;;5.07;2.22;;;7.10;86.10;;;;;;4944849;28;20031;-68
2022/04/20 03:16:29;;;;;;;3.55;2.00;;;7.10;85.70;;;;;;4944885;28;20023;-68
2022/04/20 03:18:56;;;;;;;2.60;2.00;;;7.20;85.70;;;;;;4940587;28;20027;-69
2022/04/20 03:21:25;;;;;;;6.43;2.13;;;7.20;85.80;;;;;;4945592;28;20478;-68
2022/04/20 03:23:55;;;;;;;3.85;2.20;;;7.30;85.80;;;;;;4943620;28;20034;-68
2022/04/20 03:26:31;;;;;;;;;;;7.30;85.40;;;;;;4943694;28;20394;-68
2022/04/20 03:29:13;;;;;;;7.13;2.03;;;7.40;85.50;;;;;;4944785;28;19914;-68
2022/04/20 03:31:39;;;;;;;3.65;2.10;;;7.40;85.50;;;;;;4943606;28;20033;-68
2022/04/20 03:34:06;;;;;;;3.08;2.25;;;7.40;85.80;;;;;;4941364;28;20041;-69
2022/04/20 03:36:33;;;;;;;2.95;1.92;;;7.40;85.60;;;;;;4962709;28;20406;-68
2022/04/20 03:39:00;;;;;;;4.32;2.00;;;7.40;85.60;;;;;;4939957;28;20113;-68
2022/04/20 03:41:26;;;;;;;6.10;1.98;;;7.40;85.60;;;;;;4959589;28;20027;-68
2022/04/20 03:43:52;;;;;;;5.55;2.22;;;7.50;85.70;;;;;;4941841;28;20031;-68
2022/04/20 03:46:17;;;;;;;7.60;2.42;;;7.50;85.40;;;;;;4958911;28;20058;-68
2022/04/20 03:48:45;;;;;;;5.40;2.42;;;7.50;85.50;;;;;;4945096;28;20035;-69
2022/04/20 03:51:11;;;;;;;4.30;2.15;;;7.60;85.50;;;;;;4943878;28;20142;-68
2022/04/20 03:53:37;;;;;;;3.67;2.00;;;7.60;85.50;;;;;;4959236;28;20919;-68
2022/04/20 03:56:05;;;;;;;3.95;2.35;;;7.60;84.90;;;;;;4943773;28;20102;-69
2022/04/20 03:58:31;;;;;;;5.47;2.20;;;7.60;84.90;;;;;;4945138;28;20117;-68
2022/04/20 04:00:57;;;;;;;6.13;2.15;;;7.70;84.90;;;;;;4944982;28;20969;-68
2022/04/20 04:03:23;;;;;;;5.38;1.90;;;7.70;85.30;;;;;;4944748;28;20033;-69
2022/04/20 04:05:51;;;;;;;5.05;1.98;;;7.70;85.40;;;;;;4942093;28;20041;-69
2022/04/20 04:08:20;;;;;;;4.28;2.08;;;7.70;85.40;;;;;;4960812;28;20282;-69
2022/04/20 04:10:46;;;;;;;2.83;1.88;;;7.80;85.20;;;;;;4941780;29;20085;-69
2022/04/20 04:13:13;;;;;;;6.65;2.55;;;7.80;85.20;;;;;;4944359;28;20054;-69
2022/04/20 04:15:43;;;;;;;4.75;1.90;;;7.80;85.30;;;;;;4941188;28;20486;-69
2022/04/20 04:18:10;;;;;;;4.53;2.35;;;7.80;85.30;;;;;;4942218;28;20498;-68
2022/04/20 04:20:44;;;;;;;2.95;1.92;;;7.90;85.30;;;;;;4940051;28;20483;-69
2022/04/20 04:23:12;;;;;;;2.50;1.88;;;7.90;85.70;;;;;;4941020;28;20541;-69
2022/04/20 04:25:41;;;;;;;4.28;1.90;;;7.90;85.00;;;;;;4957047;28;20047;-69
2022/04/20 04:28:09;;;;;;;6.38;2.58;;;7.90;84.70;;;;;;4939901;28;20031;-69
2022/04/20 04:30:39;;;;;;;5.13;2.00;;;8.00;84.50;;;;;;4943333;28;20019;-69
2022/04/20 04:33:05;;;;;;;3.55;2.40;;;8.00;84.50;;;;;;4943108;28;20035;-68
2022/04/20 04:35:32;;;;;;;4.13;1.85;;;8.00;84.80;;;;;;4941221;28;20039;-68
2022/04/20 04:37:59;;;;;;;4.47;2.10;;;8.10;84.90;;;;;;4943942;28;20038;-69
2022/04/20 04:40:27;;;;;;;5.22;2.40;;;8.10;85.00;;;;;;4941876;28;20030;-68
2022/04/20 04:42:53;;;;;;;7.10;1.90;;;8.20;84.90;;;;;;4959052;28;20034;-69
2022/04/20 04:50:55;;;;;;;5.38;2.60;;;8.30;84.80;;;;;;4943903;28;20126;-68
2022/04/20 04:53:21;;;;;;;5.93;2.55;;;8.40;84.60;;;;;;4943595;28;20030;-69
2022/04/20 04:55:47;;;;;;;5.55;2.20;;;8.40;84.50;;;;;;4940556;28;20106;-69
2022/04/20 04:58:13;;;;;;;4.35;2.08;;;8.50;84.30;;;;;;4939329;28;20040;-68
2022/04/20 05:00:40;;;;;;;4.55;2.63;;;8.50;84.20;;;;;;4953164;28;20208;-69
2022/04/20 05:03:17;;;;;;;7.30;2.50;;;8.60;84.00;;;;;;4941765;28;20030;-68
2022/04/20 05:05:45;;;;;;;4.60;2.40;;;8.60;83.60;;;;;;4936852;28;20034;-68
2022/04/20 05:08:13;;;;;;;3.97;2.58;;;8.60;83.20;;;;;;4941339;28;20114;-69
2022/04/20 05:10:38;;;;;;;4.53;2.58;;;8.70;83.20;;;;;;4942894;28;20118;-68
2022/04/20 05:13:07;;;;;;;5.57;3.53;;;8.70;83.10;;;;;;4939507;28;20475;-69
2022/04/20 05:15:34;;;;;;;7.22;4.47;;;8.80;83.20;;;;;;4942865;28;20455;-69
2022/04/20 05:18:01;;;;;;;8.77;5.20;;;8.90;83.10;;;;;;4943561;28;20031;-69
2022/04/20 05:20:27;;;;;;;11.55;4.75;;;9.00;82.60;;;;;;4942139;28;20019;-69
2022/04/20 05:22:53;;;;;;;6.18;3.40;;;9.10;82.20;;;;;;4941201;28;20446;-69
2022/04/20 05:25:19;;;;;;;6.10;3.08;;;9.30;81.90;;;;;;4941695;28;20035;-69
2022/04/20 05:27:44;;;;;;;6.68;3.08;;;9.40;81.40;;;;;;4941253;28;20033;-69
2022/04/20 05:30:14;;;;;;;4.40;2.83;;;9.60;80.80;;;;;;4941867;28;20069;-68
2022/04/20 05:32:41;;;;;;;4.07;2.90;;;9.70;79.80;;;;;;4943381;28;20455;-69
2022/04/20 05:35:14;;;;;;;5.95;2.70;;;9.90;79.10;;;;;;4942345;28;20035;-68
2022/04/20 05:43:17;;;;;;;5.93;2.83;;;10.80;76.40;;;;;;4960720;28;20561;-69
2022/04/20 05:45:43;;;;;;;8.52;3.15;;;11.10;75.90;;;;;;4942946;28;20041;-68
2022/04/20 05:48:41;;;;;;;4.78;2.50;;;11.80;74.90;;;;;;4944817;28;20122;-69
2022/04/20 05:51:13;;;;;;;5.65;2.40;;;13.70;68.90;;;;;;4942888;28;20031;-69
2022/04/20 05:53:39;;;;;;;8.32;2.67;;;16.10;60.40;;;;;;4942986;28;20034;-69
2022/04/20 05:56:06;;;;;;;4.70;2.78;;;18.40;52.90;;;;;;4941882;28;20136;-69
2022/04/20 05:58:35;;;;;;;7.00;2.65;;;19.50;48.20;;;;;;4938770;28;20077;-69
2022/04/20 06:01:01;;;;;;;5.03;2.47;;;21.10;44.10;;;;;;4939895;28;20456;-69
2022/04/20 06:03:45;;;;;;;5.05;2.60;;;22.40;41.40;;;;;;4959968;28;20101;-69
2022/04/20 06:06:28;;;;;;;7.72;2.42;;;22.60;40.20;;;;;;4943773;28;20097;-69
2022/04/20 06:08:55;;;;;;;5.05;3.17;;;23.30;38.80;;;;;;4944534;28;20066;-69
2022/04/20 06:11:45;;;;;;;4.65;2.45;;;24.20;36.60;;;;;;4946572;28;20062;-69
2022/04/20 06:14:16;;;;;;;5.22;2.67;;;24.20;36.30;;;;;;4960740;28;20382;-69
2022/04/20 06:16:48;;;;;;;5.50;3.00;;;24.30;36.10;;;;;;4944377;28;20027;-68
2022/04/20 06:19:22;;;;;;;4.47;2.80;;;24.90;35.40;;;;;;4945871;28;20030;-67
2022/04/20 06:21:57;;;;;;;6.57;3.13;;;25.90;33.80;;;;;;4945506;28;20693;-69
2022/04/20 06:24:40;;;;;;;4.93;2.70;;;26.60;33.00;;;;;;4945963;28;20062;-68
2022/04/20 06:27:41;;;;;;;5.78;2.80;;;27.20;31.70;;;;;;4903214;29;20063;-69
2022/04/20 06:30:27;;;;;;;7.50;2.92;;;28.10;31.30;;;;;;4942973;28;20738;-69
2022/04/20 06:32:55;;;;;;;4.00;2.60;;;28.40;30.30;;;;;;4956369;28;20035;-69
2022/04/20 06:35:40;;;;;;;7.35;3.30;;;27.60;30.90;;;;;;4945292;28;20081;-69
2022/04/20 06:38:34;;;;;;;5.72;2.72;;;26.90;31.90;;;;;;4923991;28;20038;-69
2022/04/20 06:41:20;;;;;;;4.33;3.00;;;26.50;32.50;;;;;;4945805;28;20026;-69
2022/04/20 06:44:04;;;;;;;4.75;2.60;;;25.10;33.10;;;;;;4956870;28;20043;-69
2022/04/20 06:46:54;;;;;;;5.97;3.05;;;23.40;35.30;;;;;;4938125;28;20030;-69
2022/04/20 06:49:38;;;;;;;4.63;3.20;;;22.50;37.90;;;;;;4956656;28;20090;-69
2022/04/20 07:00:42;;;;;;;6.50;2.75;;;26.70;32.10;;;;;;4944222;28;20030;-69
2022/04/20 07:03:40;;;;;;;5.22;2.63;;;26.70;31.60;;;;;;4923005;28;20035;-69
2022/04/20 07:06:20;;;;;;;4.57;2.78;;;26.70;31.40;;;;;;4938812;28;20057;-69
2022/04/20 07:08:58;;;;;;;4.97;2.70;;;26.40;31.70;;;;;;4960532;28;20846;-69
2022/04/20 07:11:31;;;;;;;4.63;2.80;;;25.20;32.50;;;;;;4946352;28;20030;-69
2022/04/20 07:13:57;;;;;;;3.03;2.42;;;24.20;33.80;;;;;;4960521;28;20047;-69
2022/04/20 07:16:23;;;;;;;4.00;2.95;;;23.80;34.70;;;;;;4939791;28;20166;-69
2022/04/20 07:19:03;;;;;;;5.00;3.15;;;23.80;35.10;;;;;;4943467;28;20027;-69
2022/04/20 07:21:39;;;;;;;6.22;2.38;;;23.60;35.50;;;;;;4945902;28;20027;-69
2022/04/20 07:24:22;;;;;;;3.97;2.50;;;24.70;33.60;;;;;;4945390;28;20034;-69
2022/04/20 07:27:14;;;;;;;4.25;2.70;;;26.10;31.50;;;;;;4958650;28;20034;-69
2022/04/20 07:30:00;;;;;;;4.60;2.72;;;25.10;33.00;;;;;;4962667;28;20035;-69
2022/04/20 07:32:47;;;;;;;6.35;2.47;;;26.10;32.30;;;;;;4942674;28;20018;-69
2022/04/20 07:35:29;;;;;;;4.07;2.30;;;27.60;30.90;;;;;;4944373;28;20062;-69
2022/04/20 07:38:16;;;;;;;5.40;2.70;;;28.60;29.20;;;;;;4945226;28;20027;-68
2022/04/20 07:41:00;;;;;;;3.28;2.28;;;27.20;30.00;;;;;;4957270;28;20037;-69
2022/04/20 07:43:58;;;;;;;3.97;2.33;;;26.00;31.10;;;;;;4942056;28;20121;-69
2022/04/20 07:46:53;;;;;;;3.88;2.20;;;25.60;31.00;;;;;;4905803;28;20036;-69
2022/04/20 07:52:19;;;;;;;4.35;1.98;;;24.00;33.60;;;;;;4942018;28;20909;-69
2022/04/20 07:55:20;;;;;;;2.45;1.92;;;22.90;34.40;;;;;;4953604;28;20113;-69
2022/04/20 07:57:57;;;;;;;4.55;2.15;;;22.00;35.30;;;;;;4933316;28;20031;-69
2022/04/20 08:00:51;;;;;;;3.67;2.15;;;21.20;36.80;;;;;;4956516;28;20035;-69
2022/04/20 08:03:36;;;;;;;2.92;1.73;;;20.60;38.60;;;;;;4955886;28;20045;-69
2022/04/20 08:06:04;;;;;;;3.22;1.70;;;20.10;39.20;;;;;;4937784;28;20221;-69
2022/04/20 08:08:33;;;;;;;2.60;1.73;;;19.60;40.40;;;;;;4942870;28;20035;-68
2022/04/20 08:11:00;;;;;;;5.60;1.92;;;18.90;40.70;;;;;;4944935;28;20086;-68
2022/04/20 08:16:21;;;;;;;2.95;1.73;;;17.70;42.60;;;;;;4940601;28;20041;-68
2022/04/20 08:19:07;;;;;;;3.03;1.63;;;17.30;43.10;;;;;;4956008;28;20085;-68
2022/04/20 08:21:50;;;;;;;4.55;1.95;;;17.00;44.50;;;;;;4937131;28;20690;-68
2022/04/20 08:24:15;;;;;;;5.10;1.70;;;16.90;44.60;;;;;;4951667;28;20035;-68
2022/04/20 08:26:41;;;;;;;4.90;2.00;;;17.00;44.70;;;;;;4960174;28;20035;-68
2022/04/20 08:29:09;;;;;;;3.30;1.60;;;17.00;42.50;;;;;;4954046;28;20484;-68
2022/04/20 08:31:36;;;;;;;4.03;1.83;;;17.00;43.30;;;;;;4956003;28;20030;-68
2022/04/20 08:34:03;;;;;;;6.00;1.92;;;17.00;43.20;;;;;;4953907;28;20041;-68
2022/04/20 08:36:28;;;;;;;3.00;2.03;;;17.30;43.10;;;;;;4953722;28;20820;-68
2022/04/20 08:38:54;;;;;;;5.10;1.85;;;17.80;42.60;;;;;;4960245;28;20026;-68
2022/04/20 08:41:20;;;;;;;2.03;1.65;;;18.10;41.60;;;;;;4959658;28;20031;-68
2022/04/20 08:43:46;;;;;;;5.20;1.90;;;18.20;41.10;;;;;;4959886;28;20035;-68
2022/04/20 08:46:12;;;;;;;4.28;1.80;;;18.30;41.40;;;;;;4940617;28;20039;-68
2022/04/20 08:48:38;;;;;;;3.53;2.10;;;18.50;41.50;;;;;;4941550;28;20031;-68
2022/04/20 08:51:05;;;;;;;3.33;1.92;;;18.40;39.20;;;;;;4960981;28;20027;-68
2022/04/20 08:53:31;;;;;;;2.88;1.92;;;18.00;40.00;;;;;;4943476;28;20569;-68
2022/04/20 08:58:46;;;;;;;5.15;1.70;;;17.70;42.00;;;;;;4960841;28;20371;-68
2022/04/20 09:01:13;;;;;;;2.30;1.55;;;17.50;40.30;;;;;;4943856;28;20906;-67
2022/04/20 09:03:40;;;;;;;3.20;1.50;;;17.30;42.30;;;;;;4960570;28;20818;-66
2022/04/20 09:06:07;;;;;;;2.78;1.48;;;17.20;41.70;;;;;;4943337;28;20034;-67
2022/04/20 09:08:34;;;;;;;6.20;1.70;;;17.20;42.30;;;;;;4959499;28;20026;-68
2022/04/20 09:11:00;;;;;;;4.55;1.58;;;17.50;42.50;;;;;;4937594;28;20050;-68
2022/04/20 09:13:41;;;;;;;2.00;1.30;;;17.70;41.90;;;;;;4955910;28;20038;-68
2022/04/20 09:16:10;;;;;;;3.05;1.92;;;18.10;41.40;;;;;;4957883;28;20042;-68
2022/04/20 09:18:36;;;;;;;1.77;1.45;;;18.50;40.70;;;;;;4949359;28;20133;-67
2022/04/20 09:21:10;;;;;;;3.78;1.35;;;18.80;40.30;;;;;;4941091;28;20030;-68
2022/04/20 09:23:37;;;;;;;2.58;1.80;;;19.00;39.60;;;;;;4961375;28;20117;-67
2022/04/20 09:26:17;;;;;;;2.17;1.70;;;18.90;39.90;;;;;;4957344;28;20031;-68
2022/04/20 09:29:07;;;;;;;4.55;1.40;;;18.60;40.30;;;;;;4954117;28;20035;-67
2022/04/20 09:31:55;;;;;;;3.28;1.40;;;18.50;40.20;;;;;;4942547;28;20563;-67
2022/04/20 09:37:15;;;;;;;2.45;1.40;;;18.20;41.00;;;;;;4953870;28;20422;-68
2022/04/20 09:39:46;;;;;;;3.58;1.90;;;18.10;41.60;;;;;;4938473;28;20136;-66
2022/04/20 09:42:12;;;;;;;1.50;1.40;;;17.90;41.10;;;;;;4950260;28;21102;-67
2022/04/20 09:44:50;;;;;;;3.20;1.60;;;17.60;41.50;;;;;;4959848;28;20039;-68
2022/04/20 09:50:06;;;;;;;2.10;1.10;;;17.40;43.30;;;;;;4953755;28;20039;-66
2022/04/20 09:52:39;;;;;;;2.38;1.40;;;17.40;44.00;;;;;;4960439;28;20427;-70
2022/04/20 09:55:06;;;;;;;2.88;1.38;;;17.60;43.30;;;;;;4954121;28;20105;-69
2022/04/20 09:57:33;;;;;;;4.47;1.60;;;17.40;42.10;;;;;;4957650;28;20058;-70
2022/04/20 10:00:11;;;;;;;2.70;1.20;;;17.20;43.30;;;;;;4955572;28;20476;-65
2022/04/20 10:02:53;;;;;;;3.38;2.33;;;17.40;43.80;;;;;;4939108;28;20903;-68
2022/04/20 10:05:21;;;;;;;2.20;1.33;;;17.60;43.30;;;;;;4954554;28;20039;-68
2022/04/20 10:07:46;;;;;;;2.92;1.17;;;17.40;43.50;;;;;;4954908;28;20031;-68
2022/04/20 10:10:12;;;;;;;3.60;1.75;;;16.90;46.40;;;;;;4953191;28;20038;-68
2022/04/20 10:12:43;;;;;;;1.67;1.50;;;16.40;48.70;;;;;;4955598;28;20035;-68
2022/04/20 10:17:57;;;;;;;2.70;1.52;;;15.80;51.40;;;;;;4930258;28;20043;-69
2022/04/20 10:20:26;;;;;;;3.03;1.30;;;15.80;51.20;;;;;;4955237;28;20235;-67
2022/04/20 10:22:53;;;;;;;3.35;1.38;;;15.80;50.50;;;;;;4960309;28;20039;-68
2022/04/20 10:25:20;;;;;;;3.25;1.50;;;16.10;50.20;;;;;;4951916;28;20113;-69
2022/04/20 10:27:58;;;;;;;1.58;1.27;;;16.40;49.10;;;;;;4949817;28;20620;-68
2022/04/20 10:30:53;;;;;;;3.35;1.65;;;16.60;49.80;;;;;;4952572;28;20062;-67
2022/04/20 10:33:20;;;;;;;1.63;1.30;;;16.80;49.00;;;;;;4939057;28;20042;-67
2022/04/20 10:35:56;;;;;;;2.40;1.52;;;17.00;49.00;;;;;;4941299;28;20038;-68
2022/04/20 10:38:23;;;;;;;1.25;1.10;;;17.50;48.50;;;;;;4943107;28;20041;-67
2022/04/20 10:41:10;;;;;;;2.78;1.35;;;17.80;45.90;;;;;;4941028;28;20039;-68
2022/04/20 10:43:43;;;;;;;2.67;1.23;;;17.90;44.80;;;;;;4933541;28;20035;-67
2022/04/20 10:46:15;;;;;;;2.28;1.33;;;17.70;45.00;;;;;;4952051;28;20043;-68
2022/04/20 10:48:55;;;;;;;3.03;1.33;;;17.60;45.70;;;;;;4954328;28;20033;-68
2022/04/20 10:51:30;;;;;;;2.33;1.27;;;17.60;45.80;;;;;;4957880;28;20027;-68
2022/04/20 10:54:22;;;;;;;2.53;1.52;;;17.60;45.20;;;;;;4960278;28;20030;-68
2022/04/20 10:57:01;;;;;;;4.55;1.15;;;18.00;45.00;;;;;;4958575;28;20049;-68
2022/04/20 10:59:28;;;;;;;2.00;1.50;;;18.30;45.40;;;;;;4959719;28;20035;-68
2022/04/20 11:02:03;;;;;;;3.83;1.50;;;18.60;44.90;;;;;;4959019;28;20795;-68
2022/04/20 11:04:41;;;;;;;3.33;1.50;;;18.60;42.30;;;;;;4956813;28;20554;-67
2022/04/20 11:07:07;;;;;;;1.92;1.38;;;18.40;43.20;;;;;;4961010;28;20035;-67
2022/04/20 11:09:42;;;;;;;3.58;1.73;;;18.40;44.70;;;;;;4959065;28;20033;-68
2022/04/20 11:21:03;;;;;;;2.50;1.40;;;18.20;44.40;;;;;;4955390;28;20748;-67
2022/04/20 11:24:03;;;;;;;2.40;1.42;;;18.40;44.10;;;;;;4960509;28;20031;-67
2022/04/20 11:26:31;;;;;;;7.57;3.28;;;18.50;43.30;;;;;;4953880;28;20035;-71
2022/04/20 11:29:01;;;;;;;4.43;2.10;;;18.50;43.90;;;;;;4954590;28;20031;-71
2022/04/20 11:31:33;;;;;;;2.38;1.38;;;18.50;44.90;;;;;;4956110;28;20023;-69
2022/04/20 11:33:59;;;;;;;1.60;0.85;;;18.50;44.60;;;;;;4956517;28;20031;-71
2022/04/20 11:36:25;;;;;;;1.70;1.00;;;18.60;44.40;;;;;;4939081;28;20038;-69
2022/04/20 11:38:51;;;;;;;3.95;1.30;;;18.40;42.90;;;;;;4956864;28;20022;-67
2022/04/20 11:41:18;;;;;;;2.03;1.10;;;18.00;44.60;;;;;;4957584;28;20028;-67
2022/04/20 11:43:45;;;;;;;2.92;1.10;;;17.50;46.10;;;;;;4959739;28;20038;-68
2022/04/20 11:46:14;;;;;;;2.35;1.33;;;17.00;46.90;;;;;;4944651;28;20038;-68
2022/04/20 11:48:56;;;;;;;4.97;1.40;;;16.50;47.90;;;;;;4958612;28;20126;-69
2022/04/20 11:51:31;;;;;;;7.18;3.00;;;16.20;50.20;;;;;;4946042;28;20051;-72
2022/04/20 11:53:57;;;;;;;22.52;9.38;;;16.40;50.50;;;;;;4958750;28;20165;-72
2022/04/20 11:56:43;;;;;;;6.78;2.58;;;16.70;50.60;;;;;;4952397;28;20034;-72
2022/04/20 11:59:09;;;;;;;4.10;1.80;;;16.90;50.10;;;;;;4952676;28;20039;-72
2022/04/20 12:01:37;;;;;;;6.72;3.17;;;17.00;49.20;;;;;;4954927;28;20051;-72
2022/04/20 12:04:18;;;;;;;1.42;1.33;;;17.20;49.00;;;;;;4966595;28;20752;-70
2022/04/20 12:06:52;;;;;;;1.75;1.10;;;17.40;49.60;;;;;;4961719;28;20559;-68
2022/04/20 12:09:29;;;;;;;3.33;1.50;;;17.50;48.00;;;;;;4958431;28;20054;-68
2022/04/20 12:12:03;;;;;;;8.32;3.20;;;17.20;47.30;;;;;;4959243;28;20440;-68
2022/04/20 12:14:32;;;;;;;16.02;7.28;;;17.00;47.20;;;;;;4957319;28;20122;-67
2022/04/20 12:17:01;;;;;;;11.45;5.35;;;17.00;48.90;;;;;;4956881;28;20105;-68
2022/04/20 12:19:34;;;;;;;3.33;2.03;;;16.90;49.20;;;;;;4957469;28;20034;-66
2022/04/20 12:22:08;;;;;;;2.60;2.00;;;16.70;49.60;;;;;;4957457;28;20658;-68
2022/04/20 12:24:34;;;;;;;5.10;2.78;;;16.70;49.60;;;;;;4960179;28;20140;-67
2022/04/20 12:27:00;;;;;;;3.13;1.80;;;16.80;49.90;;;;;;4954101;28;20066;-68
2022/04/20 12:29:28;;;;;;;4.68;2.45;;;17.20;48.80;;;;;;4958234;28;20407;-68
2022/04/20 12:31:54;;;;;;;4.63;3.00;;;17.50;47.60;;;;;;4956569;28;20027;-68
2022/04/20 12:34:23;;;;;;;4.07;2.10;;;17.80;48.30;;;;;;4942657;28;20031;-68
2022/04/20 12:36:54;;;;;;;3.72;2.15;;;18.10;47.50;;;;;;4941740;28;20023;-68
2022/04/20 12:39:27;;;;;;;8.35;1.80;;;18.20;46.70;;;;;;4957551;28;20043;-69
2022/04/20 12:41:54;;;;;;;4.72;3.53;;;18.40;47.10;;;;;;4941219;28;20610;-68
2022/04/20 12:44:35;;;;;;;3.45;2.25;;;18.40;45.70;;;;;;4957772;28;20505;-68
2022/04/20 12:47:01;;;;;;;2.65;1.90;;;18.50;45.50;;;;;;4954678;28;20074;-68
2022/04/20 12:49:27;;;;;;;10.38;2.38;;;18.80;45.80;;;;;;4956363;28;20034;-68
2022/04/20 12:51:53;;;;;;;4.28;2.30;;;18.90;45.20;;;;;;4956852;28;21094;-68
2022/04/20 12:54:23;;;;;;;5.68;3.00;;;18.90;45.10;;;;;;4955221;28;20031;-68
2022/04/20 13:02:17;;;;;;;4.60;2.35;;;18.90;45.30;;;;;;4961684;28;20031;-68
2022/04/20 13:04:50;;;;;;;2.38;1.63;;;19.20;44.80;;;;;;4953920;28;20046;-68
2022/04/20 13:07:16;;;;;;;4.13;1.85;;;19.50;44.30;;;;;;4954697;28;20030;-69
2022/04/20 13:09:42;;;;;;;7.95;1.80;;;19.70;43.70;;;;;;4953907;28;20523;-69
2022/04/20 13:12:08;;;;;;;3.35;1.50;;;19.80;43.80;;;;;;4956007;28;20034;-69
2022/04/20 13:14:35;;;;;;;3.67;1.80;;;19.90;43.80;;;;;;4957864;28;20050;-68
2022/04/20 13:17:01;;;;;;;4.10;1.55;;;20.20;43.30;;;;;;4938409;28;20134;-66
2022/04/20 13:19:27;;;;;;;1.92;1.52;;;20.60;43.00;;;;;;4957783;28;20497;-70
2022/04/20 13:21:52;;;;;;;1.50;1.40;;;21.00;41.90;;;;;;4957577;28;20558;-71
2022/04/20 13:27:54;;;;;;;2.05;1.80;;;21.20;41.70;;;;;;4959124;28;20046;-70
2022/04/20 13:29:48;;;;;;;6.13;2.20;;;20.90;41.90;;;;;;4955029;28;20861;-70
2022/04/20 13:32:17;;;;;;;4.35;1.75;;;20.80;41.80;;;;;;4954911;28;20034;-68
2022/04/20 13:34:42;;;;;;;2.85;1.70;;;20.30;42.60;;;;;;4954424;28;20031;-68
2022/04/20 13:37:08;;;;;;;4.28;2.10;;;20.10;43.30;;;;;;4957623;28;20027;-68
2022/04/20 13:39:33;;;;;;;2.00;1.58;;;19.80;42.70;;;;;;4960193;28;20034;-68
2022/04/20 13:41:59;;;;;;;3.88;2.20;;;19.70;44.00;;;;;;4959885;28;20038;-69
2022/04/20 13:44:25;;;;;;;3.90;2.20;;;19.60;44.70;;;;;;4956133;28;20041;-69
2022/04/20 13:46:51;;;;;;;6.07;2.05;;;19.40;44.60;;;;;;4955097;28;20030;-68
2022/04/20 13:49:16;;;;;;;3.58;1.92;;;19.30;45.10;;;;;;4953937;28;20033;-68
2022/04/20 13:51:42;;;;;;;4.90;2.20;;;19.20;44.80;;;;;;4953791;28;20057;-69
2022/04/20 13:54:08;;;;;;;3.35;2.10;;;19.00;45.40;;;;;;4956082;28;20410;-68
2022/04/20 13:56:34;;;;;;;3.72;1.70;;;18.90;46.30;;;;;;4951145;28;20039;-68
2022/04/20 13:59:00;;;;;;;4.50;1.90;;;18.70;45.40;;;;;;4954643;28;20041;-68
2022/04/20 14:01:27;;;;;;;3.17;1.70;;;18.60;45.80;;;;;;4956650;28;20048;-68
2022/04/20 14:03:53;;;;;;;2.95;1.83;;;18.40;46.90;;;;;;4955550;28;20058;-68
2022/04/20 14:06:18;;;;;;;2.90;2.28;;;18.30;47.30;;;;;;4956185;28;20213;-68
2022/04/20 14:08:44;;;;;;;5.55;1.85;;;18.20;47.40;;;;;;4940371;28;20039;-68
2022/04/20 14:11:10;;;;;;;5.68;2.47;;;18.00;47.90;;;;;;4956006;28;20050;-68